Flight Track Log - Related Links

Times and Time Zones

All times are in EDT time to prevent confusion due to time zone crossing. See the N926FM flight status page for this flight to view local times or setup timezone preferences in your user account.

Time Position Orientation Groundspeed Altitude Reporting Facility
EDT Latitude Longitude Course Direction KTS MPH feet Rate Location/Type
Mon 12:00:24 PM 38.4833 -121.3167 180° South 231 266 3,000  Level Northern Cal TRACON
Mon 12:01:11 PM 38.4533 -121.2686 129° Southeast 258 297 4,800 2,862 Climbing Oakland Center
Mon 12:02:13 PM 38.3781 -121.2064 147° Southeast 292 336 8,200 3,266 Climbing Oakland Center
Mon 12:02:30 PM 38.3500 -121.2000 170° South 289 333 9,100 2,127 Climbing Northern Cal TRACON
Mon 12:03:32 PM 38.2667 -121.1667 163° South 316 364 11,000 950 Climbing Northern Cal TRACON
Mon 12:04:30 PM 38.1667 -121.1333 165° South 378 435 11,000  Level Northern Cal TRACON
Mon 12:05:17 PM 38.1019 -121.1133 166° South 375 432 11,000  Level Oakland Center
Mon 12:06:18 PM 37.9972 -121.0783 165° South 385 443 11,000 -246 Level Oakland Center
Mon 12:07:19 PM 37.8922 -121.0442 166° South 388 447 10,500 -488 Descending Oakland Center
Mon 12:08:21 PM 37.7861 -121.0233 171° South 390 449 10,000 -293 Descending Oakland Center
Mon 12:09:22 PM 37.6861 -121.0511 192° South 375 432 9,900 -197 Descending Oakland Center
Mon 12:10:23 PM 37.6019 -121.1222 214° Southwest 307 353 9,600 -341 Descending Oakland Center
Mon 12:11:25 PM 37.5492 -121.1833 223° Southwest 293 337 9,200 -439 Descending Oakland Center
Mon 12:12:26 PM 37.4906 -121.2514 223° Southwest 289 333 8,700 -541 Descending Oakland Center
Mon 12:13:27 PM 37.4308 -121.3189 222° Southwest 288 331 8,100 -488 Descending Oakland Center
Mon 12:14:29 PM 37.3611 -121.4014 223° Southwest 287 330 7,700 -537 Descending Oakland Center
Mon 12:15:30 PM 37.3092 -121.4617 223° Southwest 279 321 7,000 -738 Descending Oakland Center
Mon 12:16:31 PM 37.2731 -121.5453 242° Southwest 278 320 6,200 -934 Descending Oakland Center
Mon 12:17:32 PM 37.2625 -121.6406 262° West 260 299 5,100 -1,220 Descending Oakland Center
Mon 12:18:34 PM 37.2564 -121.7289 265° West 255 293 3,700 -1,220 Descending Oakland Center
Mon 12:19:35 PM 37.2572 -121.8144 271° West 252 290 2,600 -934 Descending Oakland Center
Mon 12:20:36 PM 37.2983 -121.8619 317° Northwest 215 247 1,800 -927 Descending Oakland Center
Mon 12:21:38 PM 37.3331 -121.8981 320° Northwest 184 212 700 -829 Descending Oakland Center
Mon 12:22:39 PM 37.3594 -121.9278 318° Northwest 148 170 100 -590 Descending Oakland Center
Mon 12:24:00 PM 37.3627 -121.9291 North  Level Estimated

Login

Don't have an account? Register now (free) for customized features, flight alerts, and more!